createdAt,value
2018-04-23T00:00:39.520Z,16.60
2018-04-23T00:03:07.908Z,16.60
2018-04-23T00:05:36.306Z,16.60
2018-04-23T00:08:05.507Z,16.30
2018-04-23T00:10:34.720Z,16.30
2018-04-23T00:13:03.096Z,16.30
2018-04-23T00:15:31.799Z,16.30
2018-04-23T00:18:00.253Z,16.30
2018-04-23T00:20:29.405Z,16.40
2018-04-23T00:22:57.860Z,16.40
2018-04-23T00:25:26.235Z,16.40
2018-04-23T00:27:54.654Z,16.40
2018-04-23T00:30:23.033Z,16.40
2018-04-23T00:32:51.421Z,16.30
2018-04-23T00:35:19.826Z,16.40
2018-04-23T00:37:48.656Z,16.50
2018-04-23T00:40:18.124Z,16.50
2018-04-23T00:42:46.501Z,16.50
2018-04-23T00:45:15.012Z,16.40
2018-04-23T00:47:43.450Z,16.30
2018-04-23T00:50:12.605Z,16.20
2018-04-23T00:52:41.017Z,16.20
2018-04-23T00:55:10.162Z,16.10
2018-04-23T00:57:38.565Z,16.10
2018-04-23T01:00:06.993Z,16.00
2018-04-23T01:02:35.561Z,16.00
2018-04-23T01:05:04.704Z,15.80
2018-04-23T01:07:33.144Z,15.80
2018-04-23T01:10:01.885Z,15.80
2018-04-23T01:12:30.312Z,15.70
2018-04-23T01:14:59.275Z,15.80
2018-04-23T01:17:27.653Z,15.80
2018-04-23T01:19:56.378Z,15.90
2018-04-23T01:22:24.760Z,15.80
2018-04-23T01:24:53.760Z,15.80
2018-04-23T01:27:22.145Z,15.80
2018-04-23T01:29:50.765Z,15.70
2018-04-23T01:32:19.164Z,15.70
2018-04-23T01:34:48.305Z,15.70
2018-04-23T01:37:16.712Z,15.70
2018-04-23T01:39:45.089Z,15.70
2018-04-23T01:42:13.517Z,15.70
2018-04-23T01:44:41.913Z,15.70
2018-04-23T01:47:10.323Z,15.70
2018-04-23T01:49:38.724Z,15.70
2018-04-23T01:52:07.105Z,15.70
2018-04-23T01:54:35.528Z,15.60
2018-04-23T01:57:03.905Z,15.60
2018-04-23T01:59:32.324Z,15.60
2018-04-23T02:02:00.707Z,15.60
2018-04-23T02:04:29.089Z,15.70
2018-04-23T02:06:57.492Z,15.70
2018-04-23T02:09:26.640Z,15.80
2018-04-23T02:11:55.045Z,15.80
2018-04-23T02:14:23.433Z,15.90
2018-04-23T02:16:52.613Z,15.90
2018-04-23T02:19:21.005Z,15.90
2018-04-23T02:21:49.384Z,15.90
2018-04-23T02:24:17.812Z,16.00
2018-04-23T02:26:46.196Z,15.80
2018-04-23T02:29:14.601Z,15.70
2018-04-23T02:31:42.976Z,15.60
2018-04-23T02:34:11.405Z,15.50
2018-04-23T02:36:39.799Z,15.40
2018-04-23T02:39:08.188Z,15.40
2018-04-23T02:41:36.591Z,15.30
2018-04-23T02:44:04.971Z,15.40
2018-04-23T02:46:33.389Z,15.30
2018-04-23T02:49:02.545Z,15.30
2018-04-23T02:51:30.921Z,15.20
2018-04-23T02:53:59.340Z,15.30
2018-04-23T02:56:28.504Z,15.30
2018-04-23T02:58:56.905Z,15.20
2018-04-23T03:01:26.056Z,15.40
2018-04-23T03:03:54.472Z,15.40
2018-04-23T03:06:22.849Z,15.50
2018-04-23T03:08:51.455Z,15.50
2018-04-23T03:11:20.627Z,15.30
2018-04-23T03:13:49.030Z,15.30
2018-04-23T03:16:18.213Z,15.30
2018-04-23T03:18:46.588Z,15.20
2018-04-23T03:21:15.020Z,15.20
2018-04-23T03:23:43.410Z,15.20
2018-04-23T03:26:11.805Z,15.20
2018-04-23T03:28:40.204Z,15.20
2018-04-23T03:31:08.581Z,15.20
2018-04-23T03:33:36.981Z,15.20
2018-04-23T03:36:06.129Z,15.30
2018-04-23T03:38:34.560Z,15.30
2018-04-23T03:41:03.705Z,15.50
2018-04-23T03:43:32.092Z,15.40
2018-04-23T03:46:00.496Z,15.50
2018-04-23T03:48:28.892Z,15.50
2018-04-23T03:50:58.056Z,15.40
2018-04-23T03:53:26.441Z,15.40
2018-04-23T03:55:54.872Z,15.30
2018-04-23T03:58:23.250Z,15.20
2018-04-23T04:00:51.638Z,15.20
2018-04-23T04:03:20.029Z,15.30
2018-04-23T04:05:48.509Z,15.40
2018-04-23T04:08:16.926Z,15.40
2018-04-23T04:10:46.067Z,15.50
2018-04-23T04:13:32.373Z,15.40
2018-04-23T04:16:18.601Z,15.40
2018-04-23T04:18:47.014Z,15.50
2018-04-23T04:21:16.163Z,15.60
2018-04-23T04:23:44.556Z,15.60
2018-04-23T04:26:13.708Z,15.70
2018-04-23T04:28:43.773Z,15.80
2018-04-23T04:31:12.180Z,15.80
2018-04-23T04:33:41.333Z,15.80
2018-04-23T04:36:09.756Z,15.80
2018-04-23T04:38:38.910Z,15.90
2018-04-23T04:41:07.317Z,15.90
2018-04-23T04:43:36.480Z,16.00
2018-04-23T04:46:05.258Z,15.90
2018-04-23T04:48:33.913Z,15.90
2018-04-23T04:51:02.302Z,15.80
2018-04-23T04:53:30.716Z,15.80
2018-04-23T04:55:59.100Z,15.90
2018-04-23T04:58:27.662Z,15.90
2018-04-23T05:00:56.048Z,16.00
2018-04-23T05:03:24.429Z,15.90
2018-04-23T05:05:53.696Z,16.00
2018-04-23T05:08:22.091Z,16.10
2018-04-23T05:10:50.675Z,16.20
2018-04-23T05:13:19.126Z,16.20
2018-04-23T05:15:47.508Z,16.20
2018-04-23T05:18:15.916Z,16.20
2018-04-23T05:20:44.332Z,16.30
2018-04-23T05:23:13.804Z,16.40
2018-04-23T05:25:42.205Z,16.40
2018-04-23T05:28:10.599Z,16.40
2018-04-23T05:30:39.774Z,16.40
2018-04-23T05:33:08.176Z,16.40
2018-04-23T05:35:37.540Z,16.50
2018-04-23T05:38:05.921Z,16.50
2018-04-23T05:40:34.304Z,16.50
2018-04-23T05:43:02.729Z,16.60
2018-04-23T05:45:31.893Z,16.60
2018-04-23T05:48:00.569Z,16.60
2018-04-23T05:50:28.947Z,16.80
2018-04-23T05:52:57.324Z,16.90
2018-04-23T05:55:25.733Z,17.00
2018-04-23T05:57:54.885Z,17.10
2018-04-23T06:00:23.469Z,17.10
2018-04-23T06:02:51.853Z,17.40
2018-04-23T06:05:20.231Z,17.50
2018-04-23T06:07:48.638Z,17.50
2018-04-23T06:10:17.013Z,17.60
2018-04-23T06:12:45.413Z,17.60
2018-04-23T06:15:14.574Z,17.50
2018-04-23T06:17:42.980Z,17.50
2018-04-23T06:20:12.118Z,17.90
2018-04-23T06:22:40.496Z,17.90
2018-04-23T06:25:09.025Z,18.00
2018-04-23T06:27:37.404Z,18.20
2018-04-23T06:30:05.806Z,18.30
2018-04-23T06:32:34.956Z,18.60
2018-04-23T06:35:03.525Z,18.60
2018-04-23T06:37:31.892Z,18.70
2018-04-23T06:40:00.261Z,18.70
2018-04-23T06:42:28.672Z,18.80
2018-04-23T06:44:57.044Z,18.70
2018-04-23T06:47:25.447Z,18.70
2018-04-23T06:49:53.829Z,18.80
2018-04-23T06:52:22.481Z,18.80
2018-04-23T06:54:50.915Z,18.70
2018-04-23T06:57:20.060Z,18.80
2018-04-23T06:59:48.472Z,18.80
2018-04-23T07:02:17.100Z,18.60
2018-04-23T07:04:45.543Z,18.70
2018-04-23T07:07:13.908Z,18.80
2018-04-23T07:09:42.775Z,18.90
2018-04-23T07:12:11.661Z,19.00
2018-04-23T07:14:40.068Z,19.10
2018-04-23T07:17:08.464Z,19.20
2018-04-23T07:19:37.621Z,19.50
2018-04-23T07:22:06.017Z,19.40
2018-04-23T07:24:35.160Z,19.70
2018-04-23T07:27:03.765Z,19.70
2018-04-23T07:29:32.144Z,19.70
2018-04-23T07:32:00.910Z,19.90
2018-04-23T07:34:30.173Z,20.10
2018-04-23T07:37:00.068Z,20.70
2018-04-23T07:39:28.480Z,20.60
2018-04-23T07:41:59.120Z,21.30
2018-04-23T07:44:28.313Z,21.60
2018-04-23T07:46:57.452Z,22.00
2018-04-23T07:49:25.824Z,21.90
2018-04-23T07:51:54.217Z,22.00
2018-04-23T07:54:22.840Z,22.30
2018-04-23T07:56:51.241Z,22.50
2018-04-23T07:59:19.621Z,22.60
2018-04-23T08:01:48.184Z,22.50
2018-04-23T08:04:17.897Z,22.40
2018-04-23T08:06:47.088Z,22.60
2018-04-23T08:09:15.466Z,22.60
2018-04-23T08:11:43.841Z,23.00
2018-04-23T08:14:13.077Z,23.40
2018-04-23T08:16:41.445Z,23.40
2018-04-23T08:19:10.159Z,23.80
2018-04-23T08:21:39.084Z,24.10
2018-04-23T08:24:09.243Z,24.40
2018-04-23T08:26:37.645Z,24.40
2018-04-23T08:29:06.018Z,24.60
2018-04-23T08:31:34.412Z,24.40
2018-04-23T08:34:02.784Z,24.40
2018-04-23T08:36:31.201Z,24.60
2018-04-23T08:38:59.573Z,24.90
2018-04-23T08:41:28.133Z,25.20
2018-04-23T08:43:56.555Z,25.30
2018-04-23T08:46:25.718Z,25.20
2018-04-23T08:48:54.149Z,25.20
2018-04-23T08:51:23.297Z,24.90
2018-04-23T08:53:51.721Z,24.80
2018-04-23T08:56:20.861Z,25.20
2018-04-23T08:58:49.309Z,25.20
2018-04-23T09:01:17.727Z,25.30
2018-04-23T09:03:46.096Z,25.50
2018-04-23T09:06:14.961Z,25.60
2018-04-23T09:08:43.344Z,25.60
2018-04-23T09:11:11.928Z,25.80
2018-04-23T09:13:40.292Z,26.00
2018-04-23T09:16:08.661Z,26.00
2018-04-23T09:18:38.705Z,26.10
2018-04-23T09:21:07.081Z,26.10
2018-04-23T09:23:35.480Z,26.20
2018-04-23T09:26:03.860Z,26.10
2018-04-23T09:28:32.276Z,26.20
2018-04-23T09:31:00.673Z,26.20
2018-04-23T09:33:30.157Z,26.20
2018-04-23T09:35:58.653Z,26.20
2018-04-23T09:38:27.793Z,26.30
2018-04-23T09:40:56.193Z,26.30
2018-04-23T09:43:24.580Z,26.20
2018-04-23T09:45:53.336Z,26.30
2018-04-23T09:48:21.735Z,26.30
2018-04-23T09:50:50.194Z,26.30
2018-04-23T09:53:18.588Z,26.40
2018-04-23T09:55:46.965Z,26.40
2018-04-23T09:58:15.353Z,26.30
2018-04-23T10:00:44.522Z,25.80
2018-04-23T10:03:12.936Z,25.80
2018-04-23T10:05:41.312Z,25.40
2018-04-23T10:08:09.676Z,25.20
2018-04-23T10:10:38.069Z,25.10
2018-04-23T10:13:07.402Z,25.50
2018-04-23T10:15:35.802Z,25.40
2018-04-23T10:18:04.177Z,25.60
2018-04-23T10:20:32.780Z,25.60
2018-04-23T10:23:01.164Z,25.80
2018-04-23T10:25:29.548Z,26.00
2018-04-23T10:28:00.704Z,26.00
2018-04-23T10:30:29.079Z,26.00
2018-04-23T10:32:57.472Z,25.90
2018-04-23T10:35:25.836Z,25.90
2018-04-23T10:37:54.240Z,26.00
2018-04-23T10:40:22.613Z,26.10
2018-04-23T10:42:50.997Z,26.50
2018-04-23T10:45:19.439Z,26.60
2018-04-23T10:47:47.795Z,26.60
2018-04-23T10:50:16.216Z,26.80
2018-04-23T10:52:44.593Z,26.70
2018-04-23T10:55:13.152Z,26.60
2018-04-23T10:57:41.528Z,26.80
2018-04-23T11:00:09.911Z,26.90
2018-04-23T11:02:38.308Z,27.10
2018-04-23T11:05:06.688Z,27.40
2018-04-23T11:07:35.081Z,27.40
2018-04-23T11:10:03.485Z,27.40
2018-04-23T11:12:31.931Z,27.50
2018-04-23T11:15:00.324Z,27.70
2018-04-23T11:17:28.716Z,28.00
2018-04-23T11:19:57.126Z,28.00
2018-04-23T11:22:25.521Z,28.00
2018-04-23T11:24:55.283Z,28.20
2018-04-23T11:27:24.437Z,27.90
2018-04-23T11:29:52.873Z,27.90
2018-04-23T11:32:21.269Z,28.20
2018-04-23T11:34:49.672Z,28.20
2018-04-23T11:37:18.081Z,28.10
2018-04-23T11:39:47.876Z,28.10
2018-04-23T11:42:16.278Z,28.20
2018-04-23T11:44:45.422Z,28.30
2018-04-23T11:47:13.852Z,28.30
2018-04-23T11:49:42.240Z,28.90
2018-04-23T11:52:11.384Z,29.60
2018-04-23T11:54:39.789Z,29.50
2018-04-23T11:57:08.174Z,29.60
2018-04-23T11:59:37.348Z,29.50
2018-04-23T12:02:05.790Z,29.50
2018-04-23T12:04:34.245Z,29.40
2018-04-23T12:07:02.617Z,29.10
2018-04-23T12:09:31.006Z,29.20
2018-04-23T12:12:00.249Z,29.70
2018-04-23T12:14:28.627Z,29.70
2018-04-23T12:16:57.037Z,29.40
2018-04-23T12:19:25.437Z,29.40
2018-04-23T12:21:55.198Z,29.30
2018-04-23T12:24:23.577Z,29.30
2018-04-23T12:26:52.574Z,29.50
2018-04-23T12:29:22.357Z,29.60
2018-04-23T12:32:05.313Z,29.90
2018-04-23T12:34:48.383Z,30.00
2018-04-23T12:37:31.991Z,29.90
2018-04-23T12:40:13.956Z,30.00
2018-04-23T12:43:10.201Z,30.10
2018-04-23T12:46:07.842Z,30.10
2018-04-23T12:54:48.705Z,30.20
2018-04-23T12:57:28.083Z,29.70
2018-04-23T12:59:57.141Z,29.30
2018-04-23T13:02:26.292Z,29.20
2018-04-23T13:04:55.279Z,29.10
2018-04-23T13:07:23.673Z,28.90
2018-04-23T13:09:52.074Z,28.30
2018-04-23T13:12:21.253Z,28.10
2018-04-23T13:14:51.167Z,28.30
2018-04-23T13:17:19.772Z,28.30
2018-04-23T13:19:48.914Z,28.80
2018-04-23T13:22:17.308Z,28.80
2018-04-23T13:24:45.734Z,28.80
2018-04-23T13:27:14.973Z,28.70
2018-04-23T13:29:43.382Z,28.70
2018-04-23T13:32:11.783Z,28.80
2018-04-23T13:34:40.185Z,28.80
2018-04-23T13:37:08.565Z,28.40
2018-04-23T13:39:43.292Z,28.30
2018-04-23T13:42:19.868Z,28.20
2018-04-23T13:44:49.290Z,28.20
2018-04-23T13:47:17.664Z,28.30
2018-04-23T13:49:46.570Z,28.00
2018-04-23T13:52:14.953Z,27.90
2018-04-23T13:54:43.342Z,27.80
2018-04-23T13:57:11.789Z,27.70
2018-04-23T13:59:40.170Z,27.60
2018-04-23T14:02:08.569Z,27.40
2018-04-23T14:04:36.937Z,26.80
2018-04-23T14:07:05.352Z,26.50
2018-04-23T14:09:33.727Z,26.10
2018-04-23T14:12:02.229Z,25.50
2018-04-23T14:14:31.398Z,24.70
2018-04-23T14:16:59.776Z,24.60
2018-04-23T14:19:28.180Z,24.20
2018-04-23T14:21:57.648Z,23.80
2018-04-23T14:24:26.318Z,23.80
2018-04-23T14:26:55.021Z,23.60
2018-04-23T14:29:23.426Z,23.60
2018-04-23T14:31:51.821Z,23.30
2018-04-23T14:34:20.961Z,23.20
2018-04-23T14:36:49.361Z,23.20
2018-04-23T14:39:17.736Z,23.40
2018-04-23T14:41:46.640Z,23.50
2018-04-23T14:44:15.360Z,23.50
2018-04-23T14:46:45.265Z,23.70
2018-04-23T14:49:14.434Z,23.70
2018-04-23T14:51:42.813Z,23.70
2018-04-23T14:54:11.212Z,23.90
2018-04-23T14:56:40.464Z,24.00
2018-04-23T14:59:08.900Z,24.00
2018-04-23T15:01:38.041Z,23.60
2018-04-23T15:04:06.420Z,23.60
2018-04-23T15:06:34.825Z,23.50
2018-04-23T15:09:03.276Z,23.50
2018-04-23T15:11:31.661Z,23.20
2018-04-23T15:14:00.111Z,23.10
2018-04-23T15:16:28.620Z,22.90
2018-04-23T15:18:57.000Z,22.80
2018-04-23T15:21:25.706Z,22.50
2018-04-23T15:23:54.107Z,22.20
2018-04-23T15:26:23.245Z,21.80
2018-04-23T15:28:51.695Z,21.80
2018-04-23T15:31:20.309Z,21.70
2018-04-23T15:33:48.736Z,21.60
2018-04-23T15:36:18.068Z,21.30
2018-04-23T15:38:46.497Z,21.30
2018-04-23T15:41:14.895Z,21.00
2018-04-23T15:43:44.046Z,20.30
2018-04-23T15:46:12.458Z,20.30
2018-04-23T15:48:40.915Z,20.10
2018-04-23T15:51:09.488Z,19.90
2018-04-23T15:53:37.870Z,19.60
2018-04-23T15:56:06.429Z,19.60
2018-04-23T15:58:34.925Z,19.50
2018-04-23T16:01:03.950Z,19.50
2018-04-23T16:03:33.434Z,19.60
2018-04-23T16:06:02.673Z,19.50
2018-04-23T16:08:32.648Z,19.50
2018-04-23T16:11:01.299Z,19.50
2018-04-23T16:13:29.744Z,19.50
2018-04-23T16:15:58.398Z,19.60
2018-04-23T16:18:26.821Z,19.60
2018-04-23T16:20:55.273Z,19.30
2018-04-23T16:23:23.963Z,18.90
2018-04-23T16:25:52.414Z,18.80
2018-04-23T16:28:21.555Z,18.80
2018-04-23T16:30:50.697Z,18.60
2018-04-23T16:33:19.121Z,18.60
2018-04-23T16:35:47.513Z,18.60
2018-04-23T16:38:15.952Z,18.60
2018-04-23T16:40:44.325Z,18.50
2018-04-23T16:43:12.783Z,18.40
2018-04-23T16:45:41.896Z,18.20
2018-04-23T16:48:10.277Z,18.20
2018-04-23T16:50:38.708Z,18.30
2018-04-23T16:53:07.853Z,18.30
2018-04-23T16:55:36.252Z,18.20
2018-04-23T16:58:04.628Z,18.30
2018-04-23T17:00:33.060Z,18.40
2018-04-23T17:03:01.437Z,18.40
2018-04-23T17:05:29.852Z,18.40
2018-04-23T17:08:01.851Z,18.30
2018-04-23T17:10:34.075Z,18.20
2018-04-23T17:13:02.679Z,18.20
2018-04-23T17:15:32.511Z,18.20
2018-04-23T17:18:01.178Z,18.20
2018-04-23T17:20:31.697Z,18.10
2018-04-23T17:23:00.138Z,18.20
2018-04-23T17:25:29.061Z,18.20
2018-04-23T17:27:57.436Z,18.20
2018-04-23T17:30:25.837Z,18.20
2018-04-23T17:32:54.313Z,18.30
2018-04-23T17:35:23.083Z,18.20
2018-04-23T17:37:51.627Z,18.20
2018-04-23T17:40:21.281Z,18.20
2018-04-23T17:42:49.967Z,18.20
2018-04-23T17:45:18.692Z,18.10
2018-04-23T17:47:47.117Z,18.10
2018-04-23T17:50:15.999Z,17.90
2018-04-23T17:52:44.721Z,17.90
2018-04-23T17:55:13.900Z,17.70
2018-04-23T17:57:42.284Z,17.70
2018-04-23T18:00:10.824Z,17.60
2018-04-23T18:02:40.114Z,17.50
2018-04-23T18:05:08.512Z,17.40
2018-04-23T18:07:36.937Z,17.40
2018-04-23T18:10:05.451Z,17.30
2018-04-23T18:12:34.610Z,17.20
2018-04-23T18:15:03.020Z,17.10
2018-04-23T18:17:32.262Z,17.10
2018-04-23T18:20:01.424Z,17.20
2018-04-23T18:22:30.767Z,17.00
2018-04-23T18:24:59.689Z,17.00
2018-04-23T18:27:28.264Z,17.10
2018-04-23T18:29:56.965Z,17.00
2018-04-23T18:32:25.867Z,17.00
2018-04-23T18:34:54.627Z,16.90
2018-04-23T18:37:24.154Z,16.90
2018-04-23T18:39:53.717Z,17.00
2018-04-23T18:42:22.317Z,17.00
2018-04-23T18:44:50.924Z,17.00
2018-04-23T18:47:20.112Z,17.00
2018-04-23T18:49:49.043Z,17.00
2018-04-23T18:52:18.282Z,16.90
2018-04-23T18:54:46.977Z,16.90
2018-04-23T18:57:15.628Z,16.90
2018-04-23T18:59:44.339Z,17.00
2018-04-23T19:02:13.137Z,17.10
2018-04-23T19:04:41.957Z,17.20
2018-04-23T19:07:10.682Z,17.20
2018-04-23T19:09:39.454Z,17.30
2018-04-23T19:12:09.580Z,17.30
2018-04-23T19:14:40.362Z,17.20
2018-04-23T19:17:09.761Z,17.20
2018-04-23T19:19:38.497Z,17.20
2018-04-23T19:22:07.609Z,17.20
2018-04-23T19:24:36.256Z,17.20
2018-04-23T19:27:05.266Z,17.20
2018-04-23T19:29:34.850Z,17.20
2018-04-23T19:32:03.621Z,17.20
2018-04-23T19:34:33.226Z,17.20
2018-04-23T19:37:05.071Z,17.10
2018-04-23T19:39:37.075Z,17.10
2018-04-23T19:42:06.840Z,17.10
2018-04-23T19:44:37.573Z,17.20
2018-04-23T19:47:08.563Z,17.10
2018-04-23T19:49:38.585Z,17.10
2018-04-23T19:52:08.375Z,17.20
2018-04-23T19:54:41.477Z,17.00
2018-04-23T19:57:10.072Z,17.00
2018-04-23T19:59:42.450Z,17.00
2018-04-23T20:02:12.377Z,16.90
2018-04-23T20:04:43.010Z,16.90
2018-04-23T20:07:13.497Z,17.00
2018-04-23T20:09:42.633Z,16.90
2018-04-23T20:12:11.386Z,16.90
2018-04-23T20:14:43.049Z,16.90
2018-04-23T20:17:12.645Z,16.80
2018-04-23T20:19:42.077Z,16.80
2018-04-23T20:22:12.791Z,16.80
2018-04-23T20:24:44.538Z,16.80
2018-04-23T20:27:16.570Z,16.80
2018-04-23T20:29:45.859Z,16.80
2018-04-23T20:32:14.697Z,16.80
2018-04-23T20:34:43.134Z,16.70
2018-04-23T20:37:11.712Z,16.80
2018-04-23T20:39:40.295Z,16.70
2018-04-23T20:42:09.593Z,16.60
2018-04-23T20:44:38.585Z,16.60
2018-04-23T20:47:07.141Z,16.60
2018-04-23T20:49:35.737Z,16.50
2018-04-23T20:52:04.284Z,16.60
2018-04-23T20:54:33.432Z,16.60
2018-04-23T20:57:01.895Z,16.50
2018-04-23T20:59:30.314Z,16.50
2018-04-23T21:01:58.773Z,16.50
2018-04-23T21:04:27.186Z,16.40
2018-04-23T21:06:56.550Z,16.30
2018-04-23T21:09:24.932Z,16.30
2018-04-23T21:11:53.316Z,16.30
2018-04-23T21:14:21.723Z,16.20
2018-04-23T21:16:50.109Z,16.10
2018-04-23T21:19:19.277Z,16.10
2018-04-23T21:21:47.950Z,16.00
2018-04-23T21:24:16.633Z,16.00
2018-04-23T21:26:45.009Z,16.00
2018-04-23T21:29:13.491Z,16.00
2018-04-23T21:31:43.071Z,15.90
2018-04-23T21:34:11.684Z,15.90
2018-04-23T21:36:41.120Z,15.90
2018-04-23T21:39:10.174Z,15.90
2018-04-23T21:41:38.774Z,16.00
2018-04-23T21:44:07.446Z,16.00
2018-04-23T21:46:35.841Z,16.00
2018-04-23T21:49:04.325Z,16.00
2018-04-23T21:51:32.708Z,16.00
2018-04-23T21:54:01.125Z,16.00
2018-04-23T21:56:29.505Z,16.00
2018-04-23T21:58:58.120Z,16.00
2018-04-23T22:01:27.578Z,15.90
2018-04-23T22:03:57.405Z,15.80
2018-04-23T22:06:27.238Z,15.80
2018-04-23T22:08:57.380Z,15.70
2018-04-23T22:11:27.017Z,15.60
2018-04-23T22:13:57.591Z,15.60
2018-04-23T22:16:26.036Z,15.60
2018-04-23T22:18:55.290Z,15.70
2018-04-23T22:21:23.729Z,15.60
2018-04-23T22:23:52.113Z,15.60
2018-04-23T22:26:20.484Z,15.50
2018-04-23T22:28:49.641Z,15.40
2018-04-23T22:31:18.021Z,15.40
2018-04-23T22:33:46.420Z,15.40
2018-04-23T22:36:15.571Z,15.40
2018-04-23T22:38:44.153Z,15.40
2018-04-23T22:41:12.527Z,15.40
2018-04-23T22:43:40.908Z,15.30
2018-04-23T22:46:09.301Z,15.30
2018-04-23T22:48:37.726Z,15.30
2018-04-23T22:51:06.099Z,15.30
2018-04-23T22:53:35.253Z,15.20
2018-04-23T22:56:03.863Z,15.30
2018-04-23T22:58:32.290Z,15.30
2018-04-23T23:01:01.427Z,15.30
2018-04-23T23:03:29.827Z,15.30
2018-04-23T23:05:59.082Z,15.20
2018-04-23T23:08:27.486Z,15.20
2018-04-23T23:10:56.761Z,15.20
2018-04-23T23:13:25.968Z,15.00
2018-04-23T23:15:54.372Z,15.00
2018-04-23T23:18:22.794Z,15.00
2018-04-23T23:20:51.165Z,15.00
2018-04-23T23:23:19.550Z,15.00
2018-04-23T23:25:48.853Z,15.00
2018-04-23T23:28:17.228Z,15.10
2018-04-23T23:30:45.632Z,15.10
2018-04-23T23:33:14.040Z,15.00
2018-04-23T23:35:42.476Z,15.00
2018-04-23T23:38:10.849Z,14.90
2018-04-23T23:40:39.224Z,14.90
2018-04-23T23:43:07.647Z,15.00
2018-04-23T23:45:36.037Z,15.00
2018-04-23T23:48:04.436Z,15.00
2018-04-23T23:50:33.592Z,15.10
2018-04-23T23:53:02.163Z,15.10
2018-04-23T23:55:30.545Z,15.10
2018-04-23T23:57:58.916Z,15.00
